Date,TemperatureHighF,TemperatureAvgF,TemperatureLowF,DewpointHighF,DewpointAvgF,DewpointLowF,HumidityHigh,HumidityAvg,HumidityLow,PressureMaxIn,PressureMinIn,WindSpeedMaxMPH,WindSpeedAvgMPH,GustSpeedMaxMPH,PrecipitationSumIn
2014-2-1,57.2,45.6,36.4,53.9,42.2,35.3,100,89,71,30.06,29.79,10,4,10,0.00
2014-2-2,37.3,33.3,31.0,37.3,26.6,17.7,100,77,57,30.29,30.06,15,2,15,0.00
2014-2-3,40.7,30.6,16.9,24.9,18.7,10.6,81,62,48,30.38,30.20,11,2,11,0.16
2014-2-4,32.8,31.4,28.8,32.6,27.5,16.0,100,87,55,30.20,29.91,13,2,13,0.04
2014-2-5,33.3,26.3,17.6,33.1,16.9,6.5,100,68,57,30.62,30.03,17,6,17,0.00
2014-2-6,22.0,18.6,14.4,14.6,9.0,3.8,75,66,59,30.68,30.50,6,3,8,0.00
2014-2-7,25.0,21.8,19.8,18.7,12.2,7.8,89,67,58,30.53,30.32,10,4,10,0.00
2014-2-8,32.6,27.0,21.2,31.5,22.4,15.9,100,83,71,30.32,30.11,8,3,8,0.00
2014-2-9,37.1,33.8,31.1,34.0,29.1,23.7,100,84,66,30.26,30.14,10,2,10,0.00
2014-2-10,38.7,32.7,28.4,24.1,20.4,14.4,69,60,53,30.41,30.26,11,5,12,0.00
2014-2-11,40.0,29.9,20.9,19.3,13.6,10.2,65,51,43,30.47,30.26,9,3,10,0.00
2014-2-12,47.7,29.5,14.9,25.6,16.5,8.7,81,60,41,30.29,30.00,11,2,11,0.00
2014-2-13,56.2,35.9,21.6,33.5,23.9,16.1,84,64,42,30.03,29.85,13,2,13,0.00
2014-2-14,60.1,40.1,26.3,39.6,27.9,20.8,85,64,42,30.11,29.70,22,4,25,0.00
2014-2-15,57.4,35.4,21.4,35.7,24.2,16.7,86,65,44,30.23,29.94,10,2,10,0.00
2014-2-16,64.1,46.5,28.1,40.0,31.8,23.3,89,60,40,30.14,30.03,13,3,13,0.00
2014-2-17,68.8,52.2,32.8,45.2,35.1,23.0,68,53,40,30.17,29.88,17,5,25,0.00
2014-2-18,72.4,49.0,24.3,49.0,35.0,20.1,88,61,41,30.17,29.79,14,2,14,0.00
2014-2-19,64.3,54.4,38.5,51.8,41.5,35.5,100,66,40,30.03,29.67,15,4,15,0.00
2014-2-20,74.7,58.6,33.5,55.5,43.5,24.1,81,58,39,30.00,29.55,31,8,32,0.00
2014-2-21,63.0,43.8,25.6,39.0,27.6,19.3,80,54,39,30.14,29.97,13,3,13,0.00
2014-2-22,71.1,48.4,27.0,44.9,32.0,20.1,77,56,39,30.06,29.82,15,3,15,0.00
2014-2-23,54.2,43.4,31.7,37.0,32.2,27.6,94,66,51,30.26,29.88,11,2,11,0.00
2014-2-24,48.1,41.1,27.5,28.9,23.5,17.9,88,50,41,30.35,30.11,12,4,12,0.00
2014-2-25,56.7,45.6,37.6,35.5,28.2,18.7,66,51,42,30.23,30.09,14,3,14,0.00
2014-2-26,41.0,31.0,20.5,20.3,13.3,5.8,57,48,43,30.38,30.11,12,4,13,0.00
2014-2-27,52.6,32.0,12.8,30.7,17.4,5.8,75,56,41,30.17,29.94,8,2,10,0.00
2014-2-28,42.5,39.0,28.1,36.2,28.6,17.9,82,67,54,30.03,29.88,12,4,12,0.04